createdAt,value
2023-01-21T00:00:15.222Z,18.40
2023-01-21T00:03:02.276Z,17.60
2023-01-21T00:05:29.269Z,19.20
2023-01-21T00:07:56.203Z,18.20
2023-01-21T00:10:23.025Z,19.60
2023-01-21T00:12:50.757Z,21.80
2023-01-21T00:15:17.691Z,17.60
2023-01-21T00:17:44.565Z,20.20
2023-01-21T00:20:13.535Z,20.40
2023-01-21T00:22:40.513Z,19.70
2023-01-21T00:25:07.813Z,19.80
2023-01-21T00:27:34.735Z,21.10
2023-01-21T00:30:01.632Z,21.50
2023-01-21T00:32:28.436Z,19.60
2023-01-21T00:34:55.342Z,22.90
2023-01-21T00:37:24.527Z,20.50
2023-01-21T00:39:51.383Z,19.70
2023-01-21T00:42:18.694Z,18.20
2023-01-21T00:44:45.632Z,19.20
2023-01-21T00:47:12.524Z,20.00
2023-01-21T00:49:39.469Z,22.30
2023-01-21T00:52:06.347Z,20.00
2023-01-21T00:54:33.237Z,21.40
2023-01-21T00:57:00.203Z,19.70
2023-01-21T00:59:27.818Z,23.10
2023-01-21T01:01:54.702Z,20.80
2023-01-21T01:04:22.567Z,18.50
2023-01-21T01:06:49.564Z,19.10
2023-01-21T01:09:17.004Z,19.40
2023-01-21T01:11:43.943Z,19.20
2023-01-21T01:14:10.810Z,19.30
2023-01-21T01:16:37.764Z,17.40
2023-01-21T01:19:04.739Z,19.80
2023-01-21T01:21:31.568Z,17.50
2023-01-21T01:24:02.617Z,18.90
2023-01-21T01:26:29.953Z,18.50
2023-01-21T01:28:56.871Z,20.10
2023-01-21T01:31:23.787Z,15.10
2023-01-21T01:33:50.816Z,21.40
2023-01-21T01:36:23.051Z,19.10
2023-01-21T01:38:51.333Z,18.20
2023-01-21T01:41:21.951Z,22.20
2023-01-21T01:43:54.961Z,18.10
2023-01-21T01:46:22.847Z,18.80
2023-01-21T01:49:05.194Z,18.00
2023-01-21T01:51:49.381Z,18.60
2023-01-21T01:54:29.122Z,16.40
2023-01-21T01:57:00.322Z,14.70
2023-01-21T01:59:28.818Z,18.00
2023-01-21T02:01:58.473Z,18.80
2023-01-21T02:04:31.431Z,17.50
2023-01-21T02:06:58.408Z,18.20
2023-01-21T02:09:29.287Z,18.10
2023-01-21T02:12:02.121Z,16.90
2023-01-21T02:14:31.370Z,20.90
2023-01-21T02:17:10.256Z,18.40
2023-01-21T02:20:04.345Z,18.70
2023-01-21T02:22:35.871Z,20.50
2023-01-21T02:25:26.908Z,19.00
2023-01-21T02:28:15.321Z,18.90
2023-01-21T02:30:50.339Z,18.80
2023-01-21T02:34:04.223Z,19.30
2023-01-21T02:40:43.315Z,20.80
2023-01-21T02:44:34.074Z,17.80
2023-01-21T02:48:37.780Z,17.30
2023-01-21T02:52:25.922Z,16.90
2023-01-21T02:56:16.693Z,16.70
2023-01-21T03:00:04.695Z,16.70
2023-01-21T03:04:13.486Z,19.10
2023-01-21T03:08:11.636Z,18.50
2023-01-21T03:16:06.066Z,14.90
2023-01-21T03:31:22.994Z,20.60
2023-01-21T03:35:05.547Z,19.00
2023-01-21T03:38:59.369Z,20.80
2023-01-21T03:42:32.825Z,20.90
2023-01-21T03:50:13.314Z,20.10
2023-01-21T03:53:53.042Z,17.80
2023-01-21T03:57:35.856Z,18.90
2023-01-21T04:31:58.786Z,21.30
2023-01-21T04:35:48.151Z,21.90
2023-01-21T04:39:24.872Z,20.30
2023-01-21T04:43:19.764Z,22.30
2023-01-21T04:55:07.032Z,19.00
2023-01-21T04:58:56.285Z,17.70
2023-01-21T05:02:45.763Z,22.80
2023-01-21T05:21:57.566Z,26.10
2023-01-21T05:25:47.067Z,21.20
2023-01-21T05:29:36.312Z,20.30
2023-01-21T05:33:24.480Z,20.10
2023-01-21T05:37:08.069Z,20.00
2023-01-21T05:40:40.934Z,20.30
2023-01-21T05:56:14.151Z,19.10
2023-01-21T05:59:36.565Z,21.10
2023-01-21T06:03:15.855Z,22.80
2023-01-21T06:06:37.456Z,23.40
2023-01-21T06:10:19.735Z,21.00
2023-01-21T06:17:47.191Z,21.20
2023-01-21T06:21:36.916Z,21.40
2023-01-21T06:25:26.286Z,23.20
2023-01-21T06:29:16.785Z,21.40
2023-01-21T06:48:41.467Z,19.20
2023-01-21T06:52:31.601Z,17.50
2023-01-21T06:56:21.823Z,17.70
2023-01-21T07:08:15.865Z,17.60
2023-01-21T07:12:05.244Z,12.80
2023-01-21T07:15:48.953Z,16.90
2023-01-21T07:39:11.541Z,12.80
2023-01-21T07:42:51.399Z,14.90
2023-01-21T08:05:43.878Z,13.70
2023-01-21T08:09:33.720Z,13.60
2023-01-21T08:13:26.524Z,15.80
2023-01-21T08:29:09.377Z,11.40
2023-01-21T08:32:54.586Z,9.00
2023-01-21T08:56:09.071Z,11.40
2023-01-21T09:00:04.080Z,10.80
2023-01-21T09:15:40.972Z,8.60
2023-01-21T09:19:31.286Z,8.60
2023-01-21T09:27:12.495Z,7.10
2023-01-21T09:31:21.813Z,8.10
2023-01-21T09:35:11.703Z,8.90
2023-01-21T09:42:36.456Z,6.50
2023-01-21T09:46:29.412Z,8.20
2023-01-21T10:14:10.127Z,8.00
2023-01-21T10:18:22.248Z,7.60
2023-01-21T10:22:11.302Z,12.50
2023-01-21T10:26:03.856Z,11.10
2023-01-21T10:29:52.911Z,5.40
2023-01-21T10:49:39.571Z,4.70
2023-01-21T10:53:33.040Z,17.40
2023-01-21T10:57:34.424Z,6.20
2023-01-21T11:01:24.001Z,4.60
2023-01-21T11:05:23.625Z,4.70
2023-01-21T11:24:57.225Z,4.40
2023-01-21T11:28:46.749Z,31.50
2023-01-21T11:32:42.729Z,63.90
2023-01-21T11:36:40.182Z,16.90
2023-01-21T11:40:39.834Z,14.60
2023-01-21T11:44:47.781Z,12.50
2023-01-21T11:52:56.416Z,2.90
2023-01-21T12:00:08.524Z,3.90
2023-01-21T12:04:05.941Z,2.40
2023-01-21T12:07:58.900Z,5.10
2023-01-21T12:12:06.530Z,3.90
2023-01-21T12:16:03.653Z,3.20
2023-01-21T12:51:05.397Z,4.40
2023-01-21T12:53:56.035Z,4.90
2023-01-21T12:56:46.136Z,4.30
2023-01-21T12:59:39.476Z,2.10
2023-01-21T13:02:29.127Z,3.40
2023-01-21T13:05:25.639Z,3.20
2023-01-21T13:08:02.085Z,4.90
2023-01-21T13:10:35.930Z,5.00
2023-01-21T13:14:01.858Z,3.20
2023-01-21T13:16:32.241Z,4.90
2023-01-21T13:19:00.565Z,4.90
2023-01-21T13:21:57.757Z,5.10
2023-01-21T13:24:34.913Z,5.20
2023-01-21T13:27:20.220Z,5.20
2023-01-21T13:30:37.999Z,4.10
2023-01-21T13:33:23.856Z,5.80
2023-01-21T13:36:30.754Z,44.60
2023-01-21T13:39:06.033Z,6.00
2023-01-21T13:41:52.380Z,6.30
2023-01-21T13:44:26.592Z,5.30
2023-01-21T13:47:20.993Z,5.30
2023-01-21T13:50:29.181Z,7.30
2023-01-21T13:53:22.417Z,4.40
2023-01-21T13:56:03.671Z,2.70
2023-01-21T13:58:43.816Z,5.10
2023-01-21T14:01:25.684Z,7.20
2023-01-21T14:04:27.969Z,10.00
2023-01-21T14:07:21.589Z,4.80
2023-01-21T14:09:56.880Z,2.70
2023-01-21T14:13:34.038Z,7.20
2023-01-21T14:16:33.471Z,7.40
2023-01-21T14:19:14.796Z,5.00
2023-01-21T14:21:45.909Z,7.10
2023-01-21T14:24:42.038Z,5.40
2023-01-21T14:27:37.541Z,5.20
2023-01-21T14:30:15.047Z,4.70
2023-01-21T14:33:05.896Z,5.30
2023-01-21T14:36:14.276Z,4.00
2023-01-21T14:38:51.986Z,4.70
2023-01-21T14:42:53.324Z,8.70
2023-01-21T14:48:48.734Z,3.50
2023-01-21T14:52:03.261Z,5.20
2023-01-21T14:55:34.013Z,5.10
2023-01-21T14:58:02.696Z,5.70
2023-01-21T15:00:35.323Z,6.30
2023-01-21T15:03:16.088Z,6.40
2023-01-21T15:05:50.808Z,10.00
2023-01-21T15:08:33.106Z,7.70
2023-01-21T15:11:18.995Z,6.10
2023-01-21T15:14:03.448Z,5.90
2023-01-21T15:16:36.798Z,5.10
2023-01-21T15:19:08.923Z,5.90
2023-01-21T15:21:45.852Z,8.50
2023-01-21T15:24:27.147Z,11.00
2023-01-21T15:27:14.137Z,8.70
2023-01-21T15:29:45.327Z,6.50
2023-01-21T15:32:30.392Z,7.20
2023-01-21T15:35:04.064Z,7.20
2023-01-21T15:37:37.667Z,5.30
2023-01-21T15:40:22.774Z,6.80
2023-01-21T15:43:12.827Z,5.20
2023-01-21T15:49:05.761Z,4.40
2023-01-21T15:52:24.035Z,4.50
2023-01-21T15:55:07.545Z,4.10
2023-01-21T15:58:41.350Z,6.50
2023-01-21T16:01:37.569Z,6.10
2023-01-21T16:04:09.129Z,5.20
2023-01-21T16:07:00.658Z,6.70
2023-01-21T16:12:06.349Z,6.60
2023-01-21T16:14:53.007Z,8.20
2023-01-21T16:17:30.556Z,7.20
2023-01-21T16:20:02.534Z,6.90
2023-01-21T16:22:34.591Z,7.60
2023-01-21T16:25:08.880Z,4.10
2023-01-21T16:27:47.261Z,8.20
2023-01-21T16:30:21.384Z,6.40
2023-01-21T16:33:09.135Z,5.60
2023-01-21T16:35:53.137Z,5.60
2023-01-21T16:38:29.895Z,4.30
2023-01-21T16:41:07.620Z,5.50
2023-01-21T16:43:46.185Z,6.10
2023-01-21T16:46:22.501Z,4.40
2023-01-21T16:48:57.722Z,5.90
2023-01-21T16:51:34.457Z,7.30
2023-01-21T16:54:18.164Z,5.10
2023-01-21T16:56:50.844Z,3.50
2023-01-21T16:59:42.725Z,5.90
2023-01-21T17:02:22.356Z,4.30
2023-01-21T17:04:54.542Z,5.70
2023-01-21T17:07:24.795Z,13.70
2023-01-21T17:10:03.705Z,27.70
2023-01-21T17:12:36.057Z,11.60
2023-01-21T17:15:18.080Z,13.40
2023-01-21T17:17:46.937Z,8.10
2023-01-21T17:20:37.686Z,8.70
2023-01-21T17:23:14.996Z,3.90
2023-01-21T17:25:44.007Z,7.40
2023-01-21T17:28:29.158Z,12.60
2023-01-21T17:31:15.853Z,14.00
2023-01-21T17:33:44.890Z,10.50
2023-01-21T17:36:15.794Z,8.60
2023-01-21T17:38:47.497Z,7.90
2023-01-21T17:41:28.221Z,10.00
2023-01-21T17:43:57.075Z,20.50
2023-01-21T17:46:29.220Z,31.70
2023-01-21T17:49:06.991Z,12.90
2023-01-21T17:51:36.060Z,8.00
2023-01-21T17:54:32.044Z,14.20
2023-01-21T17:57:00.882Z,14.40
2023-01-21T17:59:35.360Z,12.00
2023-01-21T18:02:18.669Z,14.50
2023-01-21T18:04:48.065Z,19.50
2023-01-21T18:07:32.125Z,15.00
2023-01-21T18:10:02.991Z,11.50
2023-01-21T18:12:31.886Z,13.10
2023-01-21T18:15:00.518Z,5.80
2023-01-21T18:17:28.828Z,13.40
2023-01-21T18:19:58.020Z,7.50
2023-01-21T18:22:32.052Z,8.80
2023-01-21T18:25:03.122Z,13.10
2023-01-21T18:27:31.655Z,9.20
2023-01-21T18:30:01.013Z,10.30
2023-01-21T18:32:29.298Z,8.50
2023-01-21T18:34:58.095Z,19.10
2023-01-21T18:37:26.520Z,16.50
2023-01-21T18:39:54.833Z,14.30
2023-01-21T18:42:23.798Z,11.10
2023-01-21T18:44:52.063Z,19.70
2023-01-21T18:47:20.782Z,14.50
2023-01-21T18:49:51.033Z,14.20
2023-01-21T18:52:21.315Z,11.70
2023-01-21T18:54:49.791Z,20.30
2023-01-21T18:57:23.077Z,12.50
2023-01-21T18:59:51.509Z,17.00
2023-01-21T19:02:21.191Z,18.10
2023-01-21T19:04:49.578Z,14.00
2023-01-21T19:07:21.148Z,12.20
2023-01-21T19:09:51.363Z,13.90
2023-01-21T19:12:24.673Z,11.20
2023-01-21T19:14:53.991Z,11.20
2023-01-21T19:17:29.017Z,8.50
2023-01-21T19:19:59.568Z,15.10
2023-01-21T19:22:27.911Z,21.90
2023-01-21T19:24:56.258Z,22.00
2023-01-21T19:27:35.433Z,18.40
2023-01-21T19:30:20.035Z,16.50
2023-01-21T19:32:49.909Z,20.50
2023-01-21T19:35:40.227Z,28.80
2023-01-21T19:38:26.882Z,16.60
2023-01-21T19:40:55.981Z,15.90
2023-01-21T19:43:24.500Z,21.30
2023-01-21T19:45:59.380Z,38.20
2023-01-21T19:48:28.580Z,39.60
2023-01-21T19:50:56.842Z,23.60
2023-01-21T19:53:25.107Z,27.90
2023-01-21T19:55:53.479Z,25.30
2023-01-21T19:58:25.531Z,46.50
2023-01-21T20:00:54.519Z,26.00
2023-01-21T20:03:25.062Z,21.80
2023-01-21T20:05:59.643Z,31.10
2023-01-21T20:08:30.542Z,20.90
2023-01-21T20:10:58.988Z,14.20
2023-01-21T20:13:31.433Z,14.80
2023-01-21T20:16:05.847Z,16.60
2023-01-21T20:18:34.323Z,9.00
2023-01-21T20:21:02.599Z,23.60
2023-01-21T20:23:32.796Z,20.30
2023-01-21T20:26:01.129Z,19.00
2023-01-21T20:28:34.512Z,13.50
2023-01-21T20:31:06.701Z,14.10
2023-01-21T20:33:36.526Z,43.40
2023-01-21T20:36:11.810Z,20.50
2023-01-21T20:38:40.913Z,28.30
2023-01-21T20:41:12.483Z,14.40
2023-01-21T20:43:41.132Z,11.70
2023-01-21T20:46:25.985Z,15.70
2023-01-21T20:48:55.339Z,14.60
2023-01-21T20:51:24.450Z,17.30
2023-01-21T20:53:52.940Z,7.90
2023-01-21T20:56:30.598Z,9.40
2023-01-21T20:59:02.350Z,11.30
2023-01-21T21:01:35.018Z,27.60
2023-01-21T21:04:03.981Z,15.50
2023-01-21T21:06:33.764Z,13.20
2023-01-21T21:09:02.847Z,10.30
2023-01-21T21:11:31.258Z,11.80
2023-01-21T21:14:01.939Z,12.70
2023-01-21T21:16:32.968Z,12.50
2023-01-21T21:19:01.359Z,15.30
2023-01-21T21:21:29.707Z,12.60
2023-01-21T21:23:58.097Z,12.00
2023-01-21T21:26:29.668Z,8.30
2023-01-21T21:28:59.367Z,7.50
2023-01-21T21:31:32.885Z,6.70
2023-01-21T21:34:01.417Z,8.90
2023-01-21T21:36:30.145Z,8.20
2023-01-21T21:39:00.341Z,6.20
2023-01-21T21:41:47.361Z,8.70
2023-01-21T21:44:15.855Z,4.40
2023-01-21T21:47:02.738Z,5.40
2023-01-21T21:49:31.409Z,5.30
2023-01-21T21:52:02.825Z,3.80
2023-01-21T21:54:31.262Z,4.40
2023-01-21T21:56:59.602Z,3.80
2023-01-21T21:59:27.861Z,5.10
2023-01-21T22:01:56.193Z,6.50
2023-01-21T22:04:24.626Z,6.50
2023-01-21T22:06:52.996Z,4.10
2023-01-21T22:09:21.270Z,6.60
2023-01-21T22:11:49.593Z,4.90
2023-01-21T22:14:18.256Z,5.10
2023-01-21T22:16:46.646Z,6.30
2023-01-21T22:19:15.124Z,8.00
2023-01-21T22:21:43.485Z,6.80
2023-01-21T22:24:11.813Z,4.80
2023-01-21T22:26:40.319Z,4.30
2023-01-21T22:29:08.556Z,7.00
2023-01-21T22:31:37.075Z,7.80
2023-01-21T22:34:05.712Z,12.00
2023-01-21T22:36:34.111Z,7.20
2023-01-21T22:39:02.457Z,6.20
2023-01-21T22:41:31.133Z,6.60
2023-01-21T22:43:59.420Z,6.30
2023-01-21T22:46:33.192Z,7.70
2023-01-21T22:49:01.956Z,5.40
2023-01-21T22:51:30.567Z,7.00
2023-01-21T22:54:00.460Z,6.90
2023-01-21T22:56:49.488Z,5.90
2023-01-21T22:59:17.257Z,6.30
2023-01-21T23:01:45.809Z,5.50
2023-01-21T23:04:15.065Z,8.00
2023-01-21T23:06:44.894Z,5.30
2023-01-21T23:09:15.733Z,6.80
2023-01-21T23:11:45.382Z,7.40
2023-01-21T23:14:13.763Z,8.60
2023-01-21T23:16:42.370Z,8.80
2023-01-21T23:19:10.830Z,7.80
2023-01-21T23:21:40.397Z,5.80
2023-01-21T23:24:09.183Z,5.70
2023-01-21T23:26:37.565Z,6.30
2023-01-21T23:29:05.944Z,6.10
2023-01-21T23:31:35.591Z,6.30
2023-01-21T23:34:04.033Z,6.00
2023-01-21T23:36:32.266Z,5.60
2023-01-21T23:39:00.677Z,6.90
2023-01-21T23:41:29.318Z,7.70
2023-01-21T23:44:02.041Z,5.20
2023-01-21T23:46:30.822Z,5.20
2023-01-21T23:48:59.255Z,9.10
2023-01-21T23:51:27.608Z,6.70
2023-01-21T23:53:56.876Z,5.60
2023-01-21T23:56:25.782Z,5.50
2023-01-21T23:58:54.990Z,4.10
